PTW weather

Heritage Field
Pottstown, Pennsylvania, United States

Public forecast

Using degrees Fahrenheit for public forecast. Weather courtesy of forecast.io.

METAR (pilot weather report)

Retrieved 2019/05/26 10:03 UTC (23 minutes ago):

KPTW 261003Z AUTO 00000KT 9SM OVC009 17/16 A3000 RMK AO2 T01670161 $

TAF (pilot weather forecast)

Closest forecast is Reading Regional Carl A Spaatz Field, 20.5 nm (37.9 km) WNW. Retrieved 2019/05/26 06:30 UTC (4 hours ago):

TAF KRDG 260528Z 2606/2706 VRB04KT 5SM BR BKN015 FM261200 28009KT P6SM FEW020 FM261600 28010G17KT P6SM SCT040 FM262000 28010KT P6SM VCSH SCT040 BKN100